createdAt,value
2019-06-15T00:01:25.779Z,7.63
2019-06-15T00:03:54.260Z,10.10
2019-06-15T00:06:22.973Z,8.50
2019-06-15T00:08:51.418Z,10.20
2019-06-15T00:11:19.875Z,8.40
2019-06-15T00:13:48.266Z,7.40
2019-06-15T00:16:16.706Z,8.53
2019-06-15T00:18:45.211Z,8.13
2019-06-15T00:21:13.633Z,10.60
2019-06-15T00:23:42.016Z,8.13
2019-06-15T00:26:11.364Z,10.90
2019-06-15T00:28:39.770Z,8.77
2019-06-15T00:31:08.438Z,11.03
2019-06-15T00:33:36.843Z,9.60
2019-06-15T00:36:05.604Z,7.07
2019-06-15T00:38:34.753Z,8.37
2019-06-15T00:41:03.696Z,8.70
2019-06-15T00:43:32.894Z,8.17
2019-06-15T00:46:01.936Z,7.80
2019-06-15T00:48:30.678Z,11.27
2019-06-15T00:50:59.193Z,9.90
2019-06-15T00:53:27.888Z,9.20
2019-06-15T00:55:56.381Z,9.30
2019-06-15T00:58:25.050Z,7.87
2019-06-15T01:00:53.844Z,8.37
2019-06-15T01:03:22.249Z,10.37
2019-06-15T01:05:50.738Z,8.30
2019-06-15T01:08:19.496Z,8.93
2019-06-15T01:10:48.183Z,7.63
2019-06-15T01:13:16.579Z,8.07
2019-06-15T01:15:45.263Z,10.83
2019-06-15T01:18:13.898Z,7.70
2019-06-15T01:20:42.741Z,12.93
2019-06-15T01:23:11.168Z,10.37
2019-06-15T01:25:40.036Z,13.97
2019-06-15T01:28:08.435Z,6.90
2019-06-15T01:30:39.000Z,8.40
2019-06-15T01:33:07.388Z,12.53
2019-06-15T01:35:36.122Z,7.63
2019-06-15T01:38:04.602Z,8.30
2019-06-15T01:40:33.101Z,7.17
2019-06-15T01:43:01.521Z,8.57
2019-06-15T01:45:30.069Z,7.57
2019-06-15T01:47:58.487Z,8.40
2019-06-15T01:50:27.128Z,6.10
2019-06-15T01:52:55.584Z,6.73
2019-06-15T01:55:23.993Z,9.20
2019-06-15T01:57:52.707Z,7.83
2019-06-15T02:00:29.452Z,6.70
2019-06-15T02:02:58.525Z,9.50
2019-06-15T02:05:27.279Z,8.87
2019-06-15T02:07:55.720Z,6.10
2019-06-15T02:10:32.069Z,7.43
2019-06-15T02:13:00.620Z,8.70
2019-06-15T02:15:29.175Z,6.20
2019-06-15T02:17:57.586Z,14.30
2019-06-15T02:20:26.097Z,6.73
2019-06-15T02:22:54.874Z,12.80
2019-06-15T02:25:35.283Z,7.00
2019-06-15T02:27:55.675Z,5.97
2019-06-15T02:30:27.102Z,7.40
2019-06-15T02:32:57.397Z,6.67
2019-06-15T02:35:26.274Z,7.40
2019-06-15T02:37:54.765Z,6.97
2019-06-15T02:40:24.556Z,7.67
2019-06-15T02:42:53.069Z,6.13
2019-06-15T02:45:22.543Z,7.50
2019-06-15T02:47:50.961Z,9.10
2019-06-15T02:50:20.041Z,6.37
2019-06-15T02:52:48.741Z,6.07
2019-06-15T02:55:19.244Z,13.00
2019-06-15T02:57:48.079Z,6.83
2019-06-15T03:00:19.866Z,6.30
2019-06-15T03:02:48.635Z,10.53
2019-06-15T03:05:17.997Z,7.70
2019-06-15T03:07:46.668Z,6.77
2019-06-15T03:10:15.379Z,12.20
2019-06-15T03:12:43.977Z,9.37
2019-06-15T03:15:12.748Z,7.37
2019-06-15T03:17:41.158Z,6.73
2019-06-15T03:20:10.126Z,10.03
2019-06-15T03:22:38.513Z,7.90
2019-06-15T03:25:11.608Z,8.97
2019-06-15T03:27:41.274Z,6.73
2019-06-15T03:30:10.197Z,11.17
2019-06-15T03:32:38.603Z,9.80
2019-06-15T03:35:08.464Z,10.70
2019-06-15T03:37:37.165Z,10.60
2019-06-15T03:40:07.302Z,4.97
2019-06-15T03:42:36.504Z,8.63
2019-06-15T03:45:07.752Z,6.87
2019-06-15T03:47:36.418Z,7.67
2019-06-15T03:50:08.115Z,9.90
2019-06-15T03:52:36.686Z,13.60
2019-06-15T03:55:06.162Z,12.07
2019-06-15T03:57:34.694Z,9.07
2019-06-15T04:00:03.113Z,12.60
2019-06-15T04:02:31.645Z,10.90
2019-06-15T04:05:00.440Z,14.73
2019-06-15T04:07:28.990Z,10.03
2019-06-15T04:09:57.702Z,5.77
2019-06-15T04:12:26.900Z,9.73
2019-06-15T04:14:55.406Z,7.77
2019-06-15T04:17:24.065Z,7.43
2019-06-15T04:19:53.087Z,5.70
2019-06-15T04:22:21.499Z,5.00
2019-06-15T04:24:49.966Z,7.83
2019-06-15T04:27:18.636Z,6.17
2019-06-15T04:29:47.035Z,7.87
2019-06-15T04:32:16.589Z,6.30
2019-06-15T04:34:45.257Z,6.77
2019-06-15T04:37:13.764Z,5.33
2019-06-15T04:39:42.203Z,6.67
2019-06-15T04:42:10.713Z,7.47
2019-06-15T04:44:39.483Z,5.90
2019-06-15T04:47:07.937Z,4.43
2019-06-15T04:49:36.388Z,4.60
2019-06-15T04:52:04.974Z,4.70
2019-06-15T04:54:34.350Z,6.30
2019-06-15T04:57:02.875Z,5.27
2019-06-15T04:59:31.286Z,10.90
2019-06-15T05:01:59.730Z,11.53
2019-06-15T05:04:28.164Z,5.07
2019-06-15T05:06:57.647Z,7.43
2019-06-15T05:09:26.664Z,6.27
2019-06-15T05:11:55.353Z,6.50
2019-06-15T05:14:24.075Z,3.93
2019-06-15T05:16:52.524Z,6.10
2019-06-15T05:19:21.057Z,6.07
2019-06-15T05:21:49.446Z,5.30
2019-06-15T05:24:17.840Z,8.37
2019-06-15T05:26:46.569Z,5.70
2019-06-15T05:29:15.097Z,4.33
2019-06-15T05:31:43.526Z,4.77
2019-06-15T05:34:12.177Z,4.57
2019-06-15T05:36:40.595Z,6.20
2019-06-15T05:39:09.415Z,5.63
2019-06-15T05:41:38.130Z,5.73
2019-06-15T05:44:06.549Z,6.97
2019-06-15T05:46:35.031Z,7.77
2019-06-15T05:49:03.470Z,7.30
2019-06-15T05:51:31.871Z,4.90
2019-06-15T05:54:00.445Z,4.87
2019-06-15T05:56:28.894Z,6.37
2019-06-15T05:58:57.301Z,5.63
2019-06-15T06:01:25.703Z,5.57
2019-06-15T06:03:54.123Z,8.17
2019-06-15T06:06:22.853Z,5.43
2019-06-15T06:08:51.552Z,6.70
2019-06-15T06:11:20.007Z,4.00
2019-06-15T06:13:48.529Z,5.40
2019-06-15T06:16:17.101Z,5.20
2019-06-15T06:18:45.817Z,4.60
2019-06-15T06:21:14.222Z,8.47
2019-06-15T06:23:42.822Z,5.37
2019-06-15T06:26:11.261Z,6.17
2019-06-15T06:28:39.850Z,5.17
2019-06-15T06:31:08.275Z,7.53
2019-06-15T06:33:37.020Z,5.57
2019-06-15T06:36:06.375Z,7.10
2019-06-15T06:38:35.260Z,8.27
2019-06-15T06:41:04.082Z,8.10
2019-06-15T06:43:32.730Z,6.33
2019-06-15T06:46:01.504Z,7.23
2019-06-15T06:48:30.154Z,4.53
2019-06-15T06:50:58.599Z,5.57
2019-06-15T06:53:27.213Z,6.07
2019-06-15T06:55:55.804Z,6.90
2019-06-15T06:58:25.078Z,7.90
2019-06-15T07:00:53.667Z,5.50
2019-06-15T07:03:22.120Z,4.40
2019-06-15T07:05:50.539Z,5.60
2019-06-15T07:08:18.929Z,4.30
2019-06-15T07:10:47.406Z,4.80
2019-06-15T07:13:15.819Z,5.00
2019-06-15T07:15:44.228Z,6.40
2019-06-15T07:18:12.733Z,6.27
2019-06-15T07:20:41.140Z,5.33
2019-06-15T07:23:09.946Z,5.73
2019-06-15T07:25:39.382Z,5.53
2019-06-15T07:28:08.680Z,11.33
2019-06-15T07:30:37.426Z,4.93
2019-06-15T07:33:05.997Z,3.33
2019-06-15T07:35:34.798Z,3.77
2019-06-15T07:38:03.695Z,5.80
2019-06-15T07:40:32.371Z,3.57
2019-06-15T07:43:01.043Z,3.17
2019-06-15T07:45:29.489Z,2.93
2019-06-15T07:47:57.967Z,3.10
2019-06-15T07:50:26.439Z,3.37
2019-06-15T07:52:54.875Z,2.43
2019-06-15T07:55:23.705Z,2.60
2019-06-15T07:57:52.126Z,2.40
2019-06-15T08:00:20.776Z,2.20
2019-06-15T08:02:49.247Z,3.00
2019-06-15T08:05:17.866Z,4.30
2019-06-15T08:07:46.316Z,2.10
2019-06-15T08:10:14.734Z,2.10
2019-06-15T08:12:43.146Z,1.87
2019-06-15T08:15:12.438Z,1.90
2019-06-15T08:17:41.594Z,3.67
2019-06-15T08:20:11.732Z,2.30
2019-06-15T08:22:40.287Z,8.10
2019-06-15T08:25:10.255Z,2.80
2019-06-15T08:27:39.075Z,4.20
2019-06-15T08:30:08.974Z,2.80
2019-06-15T08:32:38.366Z,2.60
2019-06-15T08:35:07.114Z,4.77
2019-06-15T08:37:35.711Z,2.70
2019-06-15T08:40:06.225Z,5.67
2019-06-15T08:42:34.788Z,3.67
2019-06-15T08:45:04.254Z,5.17
2019-06-15T08:47:32.727Z,4.40
2019-06-15T08:50:01.161Z,2.33
2019-06-15T08:52:29.989Z,2.87
2019-06-15T08:54:58.454Z,4.07
2019-06-15T08:57:26.874Z,2.40
2019-06-15T08:59:55.299Z,2.97
2019-06-15T09:02:23.741Z,1.93
2019-06-15T09:04:52.160Z,2.77
2019-06-15T09:07:20.823Z,1.63
2019-06-15T09:09:49.297Z,4.17
2019-06-15T09:12:17.712Z,2.50
2019-06-15T09:14:46.137Z,1.73
2019-06-15T09:17:14.903Z,2.13
2019-06-15T09:19:43.701Z,2.53
2019-06-15T09:22:12.169Z,2.37
2019-06-15T09:24:40.960Z,2.77
2019-06-15T09:27:09.644Z,2.40
2019-06-15T09:29:38.362Z,1.40
2019-06-15T09:32:06.998Z,1.23
2019-06-15T09:34:35.532Z,2.13
2019-06-15T09:37:04.322Z,2.03
2019-06-15T09:39:33.200Z,2.10
2019-06-15T09:42:02.541Z,2.10
2019-06-15T09:44:31.039Z,1.90
2019-06-15T09:46:59.471Z,1.37
2019-06-15T09:49:27.882Z,2.10
2019-06-15T09:51:56.650Z,1.50
2019-06-15T09:54:27.930Z,1.30
2019-06-15T09:56:55.729Z,2.20
2019-06-15T09:59:26.265Z,1.47
2019-06-15T10:01:54.570Z,1.80
2019-06-15T10:04:22.971Z,1.93
2019-06-15T10:06:51.380Z,1.40
2019-06-15T10:09:20.153Z,2.90
2019-06-15T10:11:48.992Z,1.67
2019-06-15T10:14:17.686Z,1.53
2019-06-15T10:16:46.480Z,1.93
2019-06-15T10:19:14.959Z,1.47
2019-06-15T10:21:43.703Z,1.37
2019-06-15T10:24:12.372Z,1.43
2019-06-15T10:26:40.854Z,2.57
2019-06-15T10:29:10.078Z,4.17
2019-06-15T10:31:38.508Z,2.30
2019-06-15T10:34:06.993Z,1.87
2019-06-15T10:36:35.424Z,2.17
2019-06-15T10:39:05.815Z,1.60
2019-06-15T10:41:34.215Z,2.10
2019-06-15T10:44:03.697Z,4.13
2019-06-15T10:46:33.109Z,1.70
2019-06-15T10:49:01.895Z,2.10
2019-06-15T10:51:30.499Z,2.47
2019-06-15T10:53:59.922Z,2.10
2019-06-15T10:56:28.837Z,2.27
2019-06-15T10:58:57.242Z,2.20
2019-06-15T11:01:25.687Z,1.83
2019-06-15T11:03:54.106Z,2.73
2019-06-15T11:06:22.588Z,2.60
2019-06-15T11:08:51.216Z,2.60
2019-06-15T11:11:22.035Z,2.03
2019-06-15T11:13:51.607Z,2.20
2019-06-15T11:16:20.727Z,2.53
2019-06-15T11:18:49.393Z,4.10
2019-06-15T11:21:18.204Z,2.40
2019-06-15T11:23:46.655Z,2.10
2019-06-15T11:26:15.368Z,2.40
2019-06-15T11:28:43.895Z,2.10
2019-06-15T11:31:12.481Z,2.00
2019-06-15T11:33:40.880Z,2.20
2019-06-15T11:36:09.505Z,2.47
2019-06-15T11:38:38.311Z,2.30
2019-06-15T11:41:06.694Z,5.80
2019-06-15T11:43:35.116Z,1.97
2019-06-15T11:46:03.785Z,2.07
2019-06-15T11:48:32.475Z,2.87
2019-06-15T11:51:00.886Z,2.93
2019-06-15T11:53:29.623Z,7.77
2019-06-15T11:55:58.144Z,4.03
2019-06-15T11:58:26.548Z,3.40
2019-06-15T12:00:55.298Z,8.30
2019-06-15T12:03:23.802Z,1.97
2019-06-15T12:05:52.374Z,1.80
2019-06-15T12:08:20.838Z,2.20
2019-06-15T12:10:49.486Z,3.83
2019-06-15T12:13:18.139Z,2.27
2019-06-15T12:15:46.579Z,4.53
2019-06-15T12:18:14.996Z,1.70
2019-06-15T12:20:43.401Z,1.67
2019-06-15T12:23:12.081Z,2.63
2019-06-15T12:25:40.617Z,2.03
2019-06-15T12:28:09.389Z,3.60
2019-06-15T12:30:46.590Z,3.57
2019-06-15T12:33:10.216Z,7.13
2019-06-15T12:35:38.648Z,3.37
2019-06-15T12:38:07.070Z,1.70
2019-06-15T12:40:35.494Z,3.90
2019-06-15T12:43:04.328Z,1.73
2019-06-15T12:45:33.159Z,2.53
2019-06-15T12:48:01.882Z,2.30
2019-06-15T12:50:30.438Z,2.77
2019-06-15T12:52:59.322Z,3.43
2019-06-15T12:55:27.852Z,2.70
2019-06-15T12:57:56.446Z,1.93
2019-06-15T13:00:28.009Z,1.93
2019-06-15T13:02:56.465Z,1.97
2019-06-15T13:05:25.230Z,1.60
2019-06-15T13:07:53.660Z,1.90
2019-06-15T13:10:22.438Z,1.97
2019-06-15T13:12:53.211Z,2.70
2019-06-15T13:15:22.600Z,3.73
2019-06-15T13:17:51.891Z,1.70
2019-06-15T13:20:21.758Z,1.57
2019-06-15T13:22:50.615Z,2.43
2019-06-15T13:25:19.222Z,2.60
2019-06-15T13:27:47.681Z,2.23
2019-06-15T13:30:20.763Z,2.27
2019-06-15T13:32:50.099Z,1.30
2019-06-15T13:35:19.047Z,2.33
2019-06-15T13:37:47.759Z,1.67
2019-06-15T13:40:17.260Z,1.30
2019-06-15T13:42:46.451Z,1.37
2019-06-15T13:45:16.535Z,1.37
2019-06-15T13:47:44.936Z,2.87
2019-06-15T13:50:15.485Z,1.90
2019-06-15T13:52:45.104Z,1.53
2019-06-15T13:55:14.579Z,2.23
2019-06-15T13:57:43.303Z,2.87
2019-06-15T14:00:13.098Z,3.00
2019-06-15T14:02:41.619Z,1.47
2019-06-15T14:05:10.527Z,1.70
2019-06-15T14:07:39.939Z,2.50
2019-06-15T14:10:09.240Z,3.43
2019-06-15T14:12:37.640Z,2.37
2019-06-15T14:15:08.063Z,1.80
2019-06-15T14:17:39.651Z,1.80
2019-06-15T14:20:07.864Z,2.50
2019-06-15T14:22:36.287Z,1.57
2019-06-15T14:25:09.044Z,3.00
2019-06-15T14:27:37.466Z,2.10
2019-06-15T14:30:07.984Z,2.10
2019-06-15T14:32:37.022Z,2.23
2019-06-15T14:35:06.832Z,4.10
2019-06-15T14:37:35.329Z,1.90
2019-06-15T14:40:05.042Z,1.73
2019-06-15T14:42:33.514Z,2.13
2019-06-15T14:45:01.927Z,2.30
2019-06-15T14:47:30.347Z,2.00
2019-06-15T14:49:58.862Z,2.70
2019-06-15T14:52:27.965Z,1.97
2019-06-15T14:54:56.741Z,3.43
2019-06-15T14:57:27.152Z,2.90
2019-06-15T15:00:04.000Z,4.17
2019-06-15T15:02:26.353Z,5.03
2019-06-15T15:04:56.511Z,2.83
2019-06-15T15:07:26.291Z,2.60
2019-06-15T15:09:56.746Z,3.50
2019-06-15T15:12:26.644Z,1.80
2019-06-15T15:14:56.535Z,4.40
2019-06-15T15:17:26.787Z,2.20
2019-06-15T15:19:57.443Z,2.57
2019-06-15T15:22:26.788Z,1.80
2019-06-15T15:24:56.275Z,2.03
2019-06-15T15:27:26.952Z,3.20
2019-06-15T15:29:57.007Z,3.10
2019-06-15T15:32:31.332Z,2.40
2019-06-15T15:34:56.239Z,2.33
2019-06-15T15:37:26.837Z,3.40
2019-06-15T15:39:56.509Z,2.03
2019-06-15T15:42:26.615Z,5.80
2019-06-15T15:44:56.619Z,2.17
2019-06-15T15:47:27.486Z,3.57
2019-06-15T15:49:57.626Z,2.40
2019-06-15T15:52:26.849Z,3.57
2019-06-15T15:54:56.471Z,2.63
2019-06-15T15:57:26.514Z,2.70
2019-06-15T15:59:56.426Z,2.10
2019-06-15T16:02:31.004Z,5.77
2019-06-15T16:04:57.531Z,2.30
2019-06-15T16:07:28.034Z,4.73
2019-06-15T16:09:56.762Z,4.67
2019-06-15T16:12:25.458Z,4.20
2019-06-15T16:14:56.315Z,2.37
2019-06-15T16:17:26.609Z,2.50
2019-06-15T16:19:56.350Z,2.37
2019-06-15T16:22:26.376Z,3.37
2019-06-15T16:24:56.485Z,2.63
2019-06-15T16:27:26.484Z,3.97
2019-06-15T16:29:56.619Z,4.90
2019-06-15T16:32:26.390Z,2.70
2019-06-15T16:34:54.956Z,3.10
2019-06-15T16:37:25.850Z,4.00
2019-06-15T16:39:53.509Z,3.07
2019-06-15T16:42:22.317Z,4.80
2019-06-15T16:44:50.726Z,2.57
2019-06-15T16:47:19.117Z,2.43
2019-06-15T16:49:47.994Z,2.33
2019-06-15T16:52:16.529Z,7.03
2019-06-15T16:54:46.968Z,2.80
2019-06-15T16:57:16.135Z,5.40
2019-06-15T16:59:46.835Z,3.23
2019-06-15T17:02:17.163Z,2.93
2019-06-15T17:04:47.466Z,2.10
2019-06-15T17:07:17.450Z,4.40
2019-06-15T17:09:46.608Z,3.13
2019-06-15T17:12:16.911Z,2.67
2019-06-15T17:14:45.957Z,2.90
2019-06-15T17:17:17.104Z,2.60
2019-06-15T17:19:46.698Z,2.40
2019-06-15T17:22:20.710Z,2.50
2019-06-15T17:24:45.994Z,2.60
2019-06-15T17:27:16.940Z,2.23
2019-06-15T17:29:46.887Z,3.23
2019-06-15T17:32:17.025Z,4.07
2019-06-15T17:34:46.915Z,6.10
2019-06-15T17:37:17.257Z,2.73
2019-06-15T17:39:46.749Z,2.87
2019-06-15T17:42:16.376Z,3.37
2019-06-15T17:44:46.183Z,5.00
2019-06-15T17:47:16.956Z,2.73
2019-06-15T17:49:46.922Z,3.27
2019-06-15T17:52:16.899Z,3.50
2019-06-15T17:54:46.692Z,3.50
2019-06-15T17:57:15.396Z,4.80
2019-06-15T17:59:46.863Z,4.03
2019-06-15T18:02:16.964Z,5.13
2019-06-15T18:04:47.364Z,3.30
2019-06-15T18:07:16.817Z,5.70
2019-06-15T18:09:46.630Z,4.40
2019-06-15T18:12:16.359Z,4.90
2019-06-15T18:14:46.349Z,3.90
2019-06-15T18:17:17.137Z,3.70
2019-06-15T18:19:47.004Z,3.30
2019-06-15T18:22:17.035Z,3.20
2019-06-15T18:24:46.702Z,6.10
2019-06-15T18:27:17.018Z,3.07
2019-06-15T18:29:46.464Z,2.80
2019-06-15T18:32:17.073Z,4.20
2019-06-15T18:34:46.477Z,4.50
2019-06-15T18:37:17.305Z,4.40
2019-06-15T18:39:46.855Z,5.80
2019-06-15T18:42:16.389Z,5.77
2019-06-15T18:44:47.649Z,6.97
2019-06-15T18:47:16.534Z,14.83
2019-06-15T18:49:47.343Z,6.03
2019-06-15T18:52:17.257Z,6.43
2019-06-15T18:54:46.755Z,3.53
2019-06-15T18:57:17.536Z,10.43
2019-06-15T18:59:47.406Z,3.00
2019-06-15T19:02:16.292Z,4.07
2019-06-15T19:04:45.114Z,6.70
2019-06-15T19:07:16.063Z,2.90
2019-06-15T19:09:46.436Z,3.10
2019-06-15T19:12:16.664Z,4.37
2019-06-15T19:14:46.911Z,5.60
2019-06-15T19:17:16.500Z,3.63
2019-06-15T19:19:46.790Z,7.10
2019-06-15T19:22:17.197Z,3.70
2019-06-15T19:24:50.324Z,3.13
2019-06-15T19:27:16.852Z,3.17
2019-06-15T19:29:48.515Z,4.13
2019-06-15T19:32:17.453Z,6.43
2019-06-15T19:34:51.125Z,7.50
2019-06-15T19:37:19.341Z,8.43
2019-06-15T19:39:48.056Z,6.50
2019-06-15T19:42:17.546Z,6.03
2019-06-15T19:44:46.088Z,5.93
2019-06-15T19:47:16.369Z,7.47
2019-06-15T19:49:46.696Z,7.53
2019-06-15T19:52:16.889Z,5.20
2019-06-15T19:54:45.530Z,4.90
2019-06-15T19:57:13.975Z,3.87
2019-06-15T19:59:42.415Z,9.10
2019-06-15T20:02:11.006Z,6.90
2019-06-15T20:04:39.555Z,5.90
2019-06-15T20:07:08.276Z,6.13
2019-06-15T20:09:37.183Z,5.00
2019-06-15T20:12:06.707Z,4.17
2019-06-15T20:14:36.717Z,4.53
2019-06-15T20:17:07.347Z,6.80
2019-06-15T20:19:37.699Z,8.40
2019-06-15T20:22:06.658Z,8.07
2019-06-15T20:24:36.419Z,6.67
2019-06-15T20:27:09.706Z,7.83
2019-06-15T20:29:36.126Z,4.80
2019-06-15T20:32:06.804Z,4.77
2019-06-15T20:34:37.090Z,7.10
2019-06-15T20:37:05.452Z,8.80
2019-06-15T20:39:36.111Z,6.33
2019-06-15T20:42:07.414Z,5.63
2019-06-15T20:44:36.722Z,6.00
2019-06-15T20:47:06.598Z,6.57
2019-06-15T20:49:36.978Z,6.73
2019-06-15T20:52:07.133Z,5.33
2019-06-15T20:54:35.804Z,6.20
2019-06-15T20:57:06.433Z,8.00
2019-06-15T20:59:37.011Z,5.83
2019-06-15T21:02:06.756Z,5.83
2019-06-15T21:04:36.327Z,7.13
2019-06-15T21:07:06.574Z,7.77
2019-06-15T21:09:36.429Z,8.33
2019-06-15T21:12:06.634Z,7.40
2019-06-15T21:14:36.588Z,10.23
2019-06-15T21:17:06.705Z,9.77
2019-06-15T21:19:36.229Z,6.80
2019-06-15T21:22:06.348Z,5.77
2019-06-15T21:24:37.243Z,5.70
2019-06-15T21:27:06.284Z,5.60
2019-06-15T21:29:37.047Z,5.23
2019-06-15T21:32:05.587Z,4.83
2019-06-15T21:34:36.252Z,4.20
2019-06-15T21:37:06.621Z,4.97
2019-06-15T21:39:36.471Z,5.37
2019-06-15T21:42:05.464Z,5.47
2019-06-15T21:44:35.963Z,5.33
2019-06-15T21:47:04.098Z,4.63
2019-06-15T21:49:32.870Z,4.60
2019-06-15T21:52:01.369Z,9.07
2019-06-15T21:54:29.825Z,5.87
2019-06-15T21:56:58.407Z,4.70
2019-06-15T21:59:26.841Z,5.00
2019-06-15T22:01:55.259Z,5.00
2019-06-15T22:04:25.895Z,4.90
2019-06-15T22:06:56.394Z,3.83
2019-06-15T22:09:26.509Z,4.80
2019-06-15T22:11:56.171Z,3.87
2019-06-15T22:14:26.567Z,4.43
2019-06-15T22:16:56.906Z,6.00
2019-06-15T22:19:26.191Z,5.20
2019-06-15T22:21:55.043Z,5.50
2019-06-15T22:24:23.726Z,5.00
2019-06-15T22:26:52.605Z,4.37
2019-06-15T22:29:21.296Z,4.67
2019-06-15T22:31:49.914Z,5.87
2019-06-15T22:34:18.584Z,4.53
2019-06-15T22:36:47.997Z,4.93
2019-06-15T22:39:17.249Z,5.40
2019-06-15T22:41:47.002Z,5.83
2019-06-15T22:44:16.916Z,4.87
2019-06-15T22:46:46.441Z,4.50
2019-06-15T22:49:16.125Z,4.70
2019-06-15T22:51:45.917Z,4.70
2019-06-15T22:54:16.554Z,5.77
2019-06-15T22:56:46.575Z,5.10
2019-06-15T22:59:16.868Z,4.80
2019-06-15T23:01:46.115Z,4.93
2019-06-15T23:04:17.068Z,6.77
2019-06-15T23:06:47.989Z,4.03
2019-06-15T23:09:16.676Z,4.80
2019-06-15T23:11:46.759Z,3.97
2019-06-15T23:14:17.212Z,3.80
2019-06-15T23:16:47.469Z,4.93
2019-06-15T23:19:17.158Z,4.87
2019-06-15T23:21:46.332Z,3.67
2019-06-15T23:24:16.631Z,3.50
2019-06-15T23:26:46.171Z,4.47
2019-06-15T23:29:16.453Z,2.80
2019-06-15T23:31:46.064Z,3.57
2019-06-15T23:34:16.261Z,3.97
2019-06-15T23:36:56.961Z,3.57
2019-06-15T23:39:22.470Z,3.20
2019-06-15T23:41:50.919Z,3.37
2019-06-15T23:44:19.786Z,3.37
2019-06-15T23:46:48.233Z,3.40
2019-06-15T23:49:16.652Z,4.13
2019-06-15T23:51:46.763Z,3.50
2019-06-15T23:54:15.385Z,3.57
2019-06-15T23:56:46.067Z,4.77
2019-06-15T23:59:14.007Z,4.30
